• Join FlightAware (Why Join?)
  • Login
  • US Flag 
11:56PM EDT


 

Airport Tracker/Info


-or-


 

Live Flight TrackerFlight Track Log ✈ N524NK ✈ 24-Apr-2013 ✈ KFLL - TIST / STT

Flight Track Log - Related Links

Times and Time Zones

All times are in EDT time to prevent confusion due to time zone crossing. See the N524NK flight status page for this flight to view local times or setup timezone preferences in your user account.

Time Position Orientation Groundspeed Altitude Reporting Facility
EDT Latitude Longitude Course Direction KTS MPH feet Rate Location/Type
12:53PM 26.0770 -80.1370 87° East 150 173 500  Level FlightAware
12:53PM 26.0790 -80.1130 85° East 168 193 1,400 1,500 Climbing FlightAware
12:54PM 26.0810 -80.0900 84° East 200 230 1,900 1,500 Climbing FlightAware
12:54PM 26.0840 -80.0560 84° East 237 273 2,800 2,280 Climbing FlightAware
12:55PM 26.0880 -80.0220 83° East 261 300 4,000 2,760 Climbing FlightAware
12:55PM 26.0900 -79.9970 85° East 270 311 4,900 3,180 Climbing FlightAware
12:56PM 26.0850 -79.9620 99° East 274 315 6,400 3,600 Climbing FlightAware
12:56PM 26.0780 -79.9250 102° East 279 321 7,900 3,240 Climbing FlightAware
12:56PM 26.0710 -79.8830 101° East 284 327 9,400 2,280 Climbing FlightAware
12:57PM 26.0590 -79.8230 103° East 319 367 10,600 1,440 Climbing FlightAware
12:58PM 26.0440 -79.7460 102° East 364 419 11,500 1,740 Climbing FlightAware
12:59PM 26.0300 -79.6700 102° East 375 432 13,100 2,520 Climbing FlightAware
12:59PM 26.0150 -79.5940 102° East 377 434 14,900 2,400 Climbing FlightAware
01:00PM 25.9980 -79.5080 102° East 386 444 16,500 2,040 Climbing FlightAware
01:01PM 25.9830 -79.4280 102° East 399 459 17,800 1,860 Climbing FlightAware
01:01PM 25.9690 -79.3390 100° East 412 474 19,200 1,800 Climbing FlightAware
01:02PM 25.9570 -79.2540 99° East 421 484 20,400 1,560 Climbing FlightAware
01:03PM 25.9430 -79.1510 99° East 428 493 21,600 1,020 Climbing FlightAware
01:04PM 25.9140 -79.0470 107° East 440 506 22,100 1,080 Climbing FlightAware
01:04PM 25.8600 -78.9770 131° Southeast 452 520 23,200 720 Climbing FlightAware
01:05PM 25.8150 -78.8920 120° Southeast 452 520 23,200  Level FlightAware
01:06PM 25.7800 -78.8240 120° Southeast 452 520 23,200 2,700 Level FlightAware
01:06PM 25.7110 -78.7020 122° Southeast 481 554 26,800 3,060 Climbing FlightAware
01:07PM 25.6600 -78.6080 121° Southeast 491 565 27,600 960 Climbing FlightAware
01:08PM 25.6120 -78.5190 121° Southeast 501 577 28,200 660 Climbing FlightAware
01:09PM 25.5670 -78.4340 120° Southeast 505 581 28,500 780 Climbing FlightAware
01:09PM 25.5250 -78.3560 121° Southeast 505 581 29,300 600 Climbing FlightAware
01:10PM 25.4850 -78.2800 120° Southeast 505 581 29,300  Level FlightAware
01:11PM 25.4360 -78.1840 119° Southeast 505 581 29,300 1,200 Level FlightAware
01:11PM 25.3590 -78.0530 123° Southeast 31,600 1,800 Climbing FlightAware
01:12PM 25.2870 -77.9210 121° Southeast 531 611 32,200 360 Climbing FlightAware
01:13PM 25.2440 -77.8420 121° Southeast 531 611 32,200  Level FlightAware
01:14PM 25.2010 -77.7630 121° Southeast 531 611 32,200  Level FlightAware
01:14PM 25.1580 -77.6840 121° Southeast 531 611 32,200  Level FlightAware
01:15PM 25.1040 -77.5850 121° Southeast 531 611 32,200  Level FlightAware
01:16PM 25.0610 -77.5060 121° Southeast 531 611 32,200  Level FlightAware
01:16PM 25.0180 -77.4270 121° Southeast 531 611 32,200  Level FlightAware
01:17PM 24.9750 -77.3480 121° Southeast 531 611 32,200  Level FlightAware
01:18PM 24.9210 -77.2490 121° Southeast 531 611 32,200  Level FlightAware
01:19PM 24.8780 -77.1700 121° Southeast 531 611 32,200  Level FlightAware
01:19PM 24.8350 -77.0920 121° Southeast 531 611 32,200  Level FlightAware
01:20PM 24.7920 -77.0130 121° Southeast 531 611 32,200  Level FlightAware
01:21PM 24.7490 -76.9340 121° Southeast 531 611 32,200  Level FlightAware
01:21PM 24.7060 -76.8550 121° Southeast 531 611 32,200 3,120 Level FlightAware
01:22PM 24.4792 -76.6122 121° Southeast 526 605 37,000 2,520 Climbing Miami Center
01:23PM 24.3953 -76.4869 126° Southeast 521 600 37,000  Level Miami Center
01:24PM 24.3114 -76.3550 125° Southeast 521 600 37,000  Level Miami Center
01:25PM 24.2333 -76.2183 122° Southeast 521 600 37,000  Level Miami Center
01:26PM 24.1639 -76.0844 120° Southeast 516 594 37,000  Level Miami Center
01:27PM 24.0919 -75.9483 120° Southeast 516 594 37,000  Level Miami Center
01:28PM 24.0158 -75.8100 121° Southeast 521 600 37,000  Level Miami Center
01:29PM 23.9439 -75.6742 120° Southeast 521 600 37,000  Level Miami Center
01:30PM 23.8694 -75.5342 120° Southeast 521 600 37,100  Climbing Miami Center
01:31PM 23.7928 -75.3964 121° Southeast 526 605 37,000 -60 Descending Miami Center
01:32PM 23.7183 -75.2589 121° Southeast 531 611 37,000  Level Miami Center
01:33PM 23.6417 -75.1236 122° Southeast 531 611 37,000  Level Miami Center
01:34PM 23.5689 -74.9886 120° Southeast 531 611 37,000  Level Miami Center
01:35PM 23.5069 -74.8786 122° Southeast 531 611 37,000  Level Miami Center
01:36PM 23.4256 -74.7328 121° Southeast 526 605 37,000  Level Miami Center
01:37PM 23.3506 -74.5983 121° Southeast 526 605 37,000  Level Miami Center
01:38PM 23.2753 -74.4617 121° Southeast 526 605 37,000  Level Miami Center
01:39PM 23.2000 -74.3297 122° Southeast 521 600 37,000  Level Miami Center
01:40PM 23.1267 -74.1978 121° Southeast 516 594 37,000  Level Miami Center
01:41PM 23.0531 -74.0617 120° Southeast 516 594 37,000  Level Miami Center
01:42PM 22.9775 -73.9258 121° Southeast 521 600 37,000  Level Miami Center
01:43PM 22.9017 -73.7900 121° Southeast 521 600 37,000  Level Miami Center
01:44PM 22.8258 -73.6589 122° Southeast 521 600 37,000  Level Miami Center
01:45PM 22.7475 -73.5233 122° Southeast 521 600 37,000  Level Miami Center
01:46PM 22.6694 -73.3881 122° Southeast 521 600 37,000  Level Miami Center
01:47PM 22.5953 -73.2506 120° Southeast 527 606 37,000  Level Miami Center
01:48PM 22.5208 -73.1156 121° Southeast 532 612 37,000  Level Miami Center
01:49PM 22.4422 -72.9786 122° Southeast 532 612 37,000  Level Miami Center
01:50PM 22.3678 -72.8461 121° Southeast 532 612 37,000  Level Miami Center
01:51PM 22.2869 -72.7094 123° Southeast 532 612 37,000  Level Miami Center
01:52PM 22.2100 -72.5775 122° Southeast 532 612 37,000  Level Miami Center
01:53PM 22.1375 -72.4453 121° Southeast 527 606 37,000  Level Miami Center
01:54PM 22.0606 -72.3158 123° Southeast 522 601 37,000  Level Miami Center
01:55PM 21.9878 -72.1842 121° Southeast 517 595 37,000  Level Miami Center
01:56PM 21.9106 -72.0547 123° Southeast 517 595 37,000  Level Miami Center
01:57PM 21.8356 -71.9236 122° Southeast 517 595 37,000  Level Miami Center
01:58PM 21.7603 -71.7944 122° Southeast 512 589 37,000  Level Miami Center
01:59PM 21.6831 -71.6658 123° Southeast 512 589 37,000  Level Miami Center
02:00PM 21.6075 -71.5347 122° Southeast 512 589 37,000  Level Miami Center
02:01PM 21.5322 -71.4086 123° Southeast 512 589 37,000  Level Miami Center
02:02PM 21.4544 -71.2758 122° Southeast 505 581 37,000  Level Miami Center
02:03PM 21.3614 -71.1283 124° Southeast 517 595 37,000  Level Miami Center
02:04PM 21.2875 -70.9956 121° Southeast 535 616 37,000  Level Miami Center
02:05PM 21.2117 -70.8656 122° Southeast 529 609 37,000  Level Miami Center
02:06PM 21.1358 -70.7378 122° Southeast 524 603 37,000  Level Miami Center
02:07PM 21.0556 -70.6081 124° Southeast 519 597 37,000  Level Miami Center
02:08PM 20.9794 -70.4808 123° Southeast 519 597 37,000  Level Miami Center
02:09PM 20.9011 -70.3514 123° Southeast 513 590 37,000  Level Miami Center
02:10PM 20.8244 -70.2197 122° Southeast 513 590 37,000  Level Miami Center
02:11PM 20.7439 -70.0908 124° Southeast 513 590 37,000  Level Miami Center
02:12PM 20.6675 -69.9639 123° Southeast 513 590 37,000  Level Miami Center
02:13PM 20.5889 -69.8350 123° Southeast 513 590 37,000  Level Miami Center
02:14PM 20.5100 -69.7064 123° Southeast 513 590 37,000  Level Miami Center
02:15PM 20.4331 -69.5758 122° Southeast 518 596 37,100  Climbing Miami Center
02:16PM 20.3519 -69.4453 124° Southeast 518 596 37,100 -60 Level Miami Center
02:17PM 20.2728 -69.3150 123° Southeast 523 602 37,000 -60 Descending Miami Center
02:18PM 20.1939 -69.1869 123° Southeast 523 602 37,000  Level Miami Center
02:19PM 20.1125 -69.0592 124° Southeast 523 602 37,000  Level Miami Center
02:20PM 20.0333 -68.9317 123° Southeast 523 602 37,000  Level Miami Center
02:21PM 19.9600 -68.8014 121° Southeast 518 596 37,000  Level Miami Center
02:22PM 19.9089 -68.6569 111° Southeast 512 589 37,000  Level Miami Center
02:28PM 19.6180 -67.8410 111° Southeast 527 606 37,000  Level FlightAware
02:28PM 19.5820 -67.7440 111° Southeast 528 608 37,000  Level FlightAware
02:29PM 19.5420 -67.6370 112° Southeast 528 608 37,000  Level FlightAware
02:30PM 19.5050 -67.5410 112° Southeast 529 609 37,000  Level FlightAware
02:31PM 19.4630 -67.4290 112° Southeast 527 606 37,000  Level FlightAware
02:31PM 19.4290 -67.3370 111° Southeast 527 606 37,000  Level FlightAware
02:32PM 19.3880 -67.2290 112° Southeast 527 606 37,000  Level FlightAware
02:33PM 19.3530 -67.1350 112° Southeast 526 605 37,000  Level FlightAware
02:33PM 19.3160 -67.0370 112° Southeast 527 606 37,000  Level FlightAware
02:34PM 19.2740 -66.9260 112° Southeast 526 605 37,000  Level FlightAware
02:35PM 19.2390 -66.8350 112° Southeast 527 606 37,000  Level FlightAware
02:36PM 19.1970 -66.7250 112° Southeast 526 605 37,000  Level FlightAware
02:36PM 19.1610 -66.6310 112° Southeast 528 608 37,000 -900 Level FlightAware
02:37PM 19.1250 -66.5350 112° Southeast 539 620 35,800 -2,700 Descending FlightAware
02:38PM 19.0810 -66.4220 112° Southeast 531 611 33,200 -3,840 Descending FlightAware
02:38PM 19.0450 -66.3280 112° Southeast 525 604 30,400 -4,740 Descending FlightAware
02:39PM 19.0090 -66.2330 112° Southeast 516 594 26,900 -4,380 Descending FlightAware
02:40PM 18.9710 -66.1330 112° Southeast 478 550 24,200 -2,880 Descending FlightAware
02:40PM 18.9390 -66.0490 112° Southeast 460 529 22,900 -2,160 Descending FlightAware
02:41PM 18.9030 -65.9540 112° Southeast 447 514 21,200 -2,280 Descending FlightAware
02:42PM 18.8710 -65.8750 113° Southeast 439 505 19,700 -2,280 Descending FlightAware
02:43PM 18.8370 -65.7880 112° Southeast 431 496 18,000 -2,220 Descending FlightAware
02:43PM 18.8080 -65.7130 112° Southeast 422 486 16,600 -2,220 Descending FlightAware
02:44PM 18.7780 -65.6360 112° Southeast 413 475 15,100 -2,280 Descending FlightAware
02:45PM 18.7460 -65.5510 112° Southeast 400 460 13,400 -2,220 Descending FlightAware
02:45PM 18.7220 -65.4910 113° Southeast 390 449 12,200 -1,500 Descending FlightAware
02:46PM 18.6930 -65.4170 112° Southeast 363 418 11,400 -900 Descending FlightAware
02:47PM 18.6650 -65.3660 120° Southeast 335 386 11,000 -720 Descending FlightAware
02:47PM 18.6440 -65.3530 150° Southeast 323 372 10,800 -1,320 Descending FlightAware
02:47PM 18.6010 -65.3300 153° Southeast 297 342 9,900 -1,140 Descending FlightAware
02:48PM 18.5490 -65.3000 151° Southeast 293 337 9,300 -1,860 Descending FlightAware
02:49PM 18.5100 -65.2800 154° Southeast 279 321 7,600 -1,860 Descending FlightAware
02:49PM 18.4850 -65.2650 150° Southeast 279 321 7,600 -1,140 Level FlightAware
02:50PM 18.4167 -65.2167 150° Southeast 230 265 5,800 -1,560 Descending San Juan Center
02:51PM 18.3500 -65.1833 155° Southeast 230 265 4,300 -1,440 Descending San Juan Center
02:52PM 18.3167 -65.1500 136° Southeast 210 242 3,000 -1,080 Descending San Juan Center
02:53PM 18.3167 -65.1000 90° East 180 207 2,200 -780 Descending San Juan Center
02:54PM 18.3333 -65.0500 71° East 150 173 1,500 -780 Descending San Juan Center
02:55PM 18.3333 -65.0167 90° East 130 150 700 -840 Descending San Juan Center